Gratis, Ohio
Current Conditions -  °F | °C
As of 12:15 AM on Saturday 20 Dec 2014 (Local Time) from KMWO Reporting Station
Overcast Overcast  
Wind Chill: 34°   Ceiling: 2300
Heat Index: 34°   Visibility: 10mi
Dew Point: 24°   Wind: 3mph
Humidity: 66%   Direction: 80°E
Pressure: 30.29"   Gusts: NA
Location:  39.65°N, 84.53°W
Report Text: KMWO 200515Z AUTO 08003KT 10SM OVC023 01/M04 A3029 RMK AO2 T00121045
Loading
Personal Weather Stations






























Interactive Weather Map New forecast layout! Learn more

10-Day Weather Forecast

Advertisements
Track Severe Weather on mobile